createdAt,value
2018-11-04T00:01:41.581Z,101181.66
2018-11-04T00:04:10.456Z,101181.31
2018-11-04T00:06:39.236Z,101172.17
2018-11-04T00:09:09.590Z,101171.16
2018-11-04T00:11:38.324Z,101171.80
2018-11-04T00:14:10.812Z,101176.66
2018-11-04T00:16:41.658Z,101173.16
2018-11-04T00:19:11.213Z,101167.15
2018-11-04T00:21:40.379Z,101172.50
2018-11-04T00:24:16.140Z,101165.34
2018-11-04T00:26:46.817Z,101169.36
2018-11-04T00:29:23.323Z,101172.20
2018-11-04T00:31:59.238Z,101164.02
2018-11-04T00:34:29.106Z,101166.36
2018-11-04T00:37:00.036Z,101160.67
2018-11-04T00:39:29.905Z,101159.51
2018-11-04T00:41:58.475Z,101166.02
2018-11-04T00:44:28.442Z,101164.02
2018-11-04T00:46:57.744Z,101151.51
2018-11-04T00:49:25.855Z,101149.16
2018-11-04T00:51:54.057Z,101137.64
2018-11-04T00:54:22.211Z,101137.33
2018-11-04T00:56:50.459Z,101132.48
2018-11-04T00:59:18.585Z,101130.47
2018-11-04T01:01:46.871Z,101134.98
2018-11-04T01:04:15.164Z,101126.62
2018-11-04T01:06:43.268Z,101122.64
2018-11-04T01:09:11.448Z,101115.28
2018-11-04T01:11:39.567Z,101116.44
2018-11-04T01:14:07.780Z,101109.92
2018-11-04T01:16:35.959Z,101105.27
2018-11-04T01:19:04.160Z,101102.26
2018-11-04T01:21:32.344Z,101103.41
2018-11-04T01:24:00.492Z,101093.23
2018-11-04T01:26:28.632Z,101091.92
2018-11-04T01:28:56.771Z,101082.06
2018-11-04T01:31:24.890Z,101075.86
2018-11-04T01:33:52.985Z,101076.89
2018-11-04T01:36:21.119Z,101072.74
2018-11-04T01:38:49.219Z,101069.06
2018-11-04T01:41:17.323Z,101068.75
2018-11-04T01:43:45.448Z,101062.05
2018-11-04T01:46:13.567Z,101057.67
2018-11-04T01:48:41.682Z,101055.00
2018-11-04T01:51:09.797Z,101048.22
2018-11-04T01:53:37.909Z,101050.34
2018-11-04T01:56:06.012Z,101042.66
2018-11-04T01:58:34.121Z,101041.66
2018-11-04T02:01:02.245Z,101035.84
2018-11-04T02:03:30.367Z,101031.49
2018-11-04T02:05:58.491Z,101025.64
2018-11-04T02:08:26.607Z,101015.63
2018-11-04T02:10:54.724Z,101019.48
2018-11-04T02:13:22.823Z,101009.80
2018-11-04T02:15:51.000Z,101003.79
2018-11-04T02:18:19.156Z,100999.80
2018-11-04T02:20:47.283Z,100999.50
2018-11-04T02:23:15.398Z,100997.56
2018-11-04T02:25:43.531Z,100996.44
2018-11-04T02:28:11.645Z,100993.30
2018-11-04T02:30:39.793Z,100991.61
2018-11-04T02:33:07.896Z,100994.42
2018-11-04T02:35:36.008Z,100988.90
2018-11-04T02:38:04.563Z,100992.38
2018-11-04T02:40:32.703Z,100986.89
2018-11-04T02:43:00.812Z,100979.87
2018-11-04T02:45:28.906Z,100986.73
2018-11-04T02:47:57.008Z,100978.23
2018-11-04T02:50:25.112Z,100977.70
2018-11-04T02:52:55.076Z,100985.53
2018-11-04T02:55:23.281Z,100980.84
2018-11-04T02:57:51.545Z,100983.74
2018-11-04T03:00:19.641Z,100974.10
2018-11-04T03:02:47.771Z,100971.06
2018-11-04T03:05:15.901Z,100967.04
2018-11-04T03:07:44.208Z,100968.91
2018-11-04T03:10:13.628Z,100966.88
2018-11-04T03:12:41.864Z,100964.87
2018-11-04T03:15:10.139Z,100971.45
2018-11-04T03:17:38.331Z,100959.42
2018-11-04T03:20:06.738Z,100960.88
2018-11-04T03:22:34.874Z,100957.73
2018-11-04T03:25:02.982Z,100950.00
2018-11-04T03:27:31.146Z,100955.47
2018-11-04T03:29:59.256Z,100944.16
2018-11-04T03:32:27.399Z,100945.00
2018-11-04T03:34:55.495Z,100945.34
2018-11-04T03:37:23.601Z,100945.70
2018-11-04T03:39:51.706Z,100937.38
2018-11-04T03:42:19.840Z,100935.34
2018-11-04T03:44:47.939Z,100939.11
2018-11-04T03:47:16.056Z,100943.33
2018-11-04T03:49:44.182Z,100937.80
2018-11-04T03:52:12.307Z,100935.77
2018-11-04T03:54:40.407Z,100932.44
2018-11-04T03:57:08.531Z,100927.02
2018-11-04T03:59:36.643Z,100922.77
2018-11-04T04:02:05.312Z,100926.57
2018-11-04T04:04:33.427Z,100924.08
2018-11-04T04:07:01.565Z,100923.92
2018-11-04T04:09:29.740Z,100924.92
2018-11-04T04:11:57.938Z,100913.77
2018-11-04T04:14:26.042Z,100915.29
2018-11-04T04:16:54.139Z,100923.19
2018-11-04T04:19:22.216Z,100909.66
2018-11-04T04:21:50.342Z,100919.52
2018-11-04T04:24:18.419Z,100911.45
2018-11-04T04:26:46.657Z,100914.92
2018-11-04T04:29:14.748Z,100907.17
2018-11-04T04:31:42.856Z,100907.48
2018-11-04T04:34:10.969Z,100904.91
2018-11-04T04:36:39.087Z,100904.91
2018-11-04T04:39:08.875Z,100902.59
2018-11-04T04:41:36.964Z,100901.75
2018-11-04T04:44:05.144Z,100897.25
2018-11-04T04:46:33.271Z,100894.78
2018-11-04T04:49:01.423Z,100892.41
2018-11-04T04:51:29.559Z,100888.64
2018-11-04T04:53:57.680Z,100886.93
2018-11-04T04:56:25.759Z,100890.94
2018-11-04T04:58:53.848Z,100894.70
2018-11-04T05:01:21.912Z,100895.16
2018-11-04T05:03:49.999Z,100887.84
2018-11-04T05:06:18.089Z,100888.64
2018-11-04T05:08:46.255Z,100893.42
2018-11-04T05:11:14.379Z,100891.06
2018-11-04T05:13:42.499Z,100887.09
2018-11-04T05:16:10.582Z,100891.59
2018-11-04T05:18:38.696Z,100892.06
2018-11-04T05:21:06.784Z,100881.53
2018-11-04T05:23:34.868Z,100882.69
2018-11-04T05:26:02.972Z,100883.58
2018-11-04T05:28:31.096Z,100881.28
2018-11-04T05:30:59.259Z,100878.86
2018-11-04T05:33:27.346Z,100882.00
2018-11-04T05:35:55.416Z,100882.50
2018-11-04T05:38:23.511Z,100870.33
2018-11-04T05:40:51.587Z,100863.31
2018-11-04T05:43:19.687Z,100870.52
2018-11-04T05:45:47.754Z,100872.81
2018-11-04T05:48:15.853Z,100868.62
2018-11-04T05:50:43.953Z,100865.91
2018-11-04T05:53:12.037Z,100863.98
2018-11-04T05:55:40.103Z,100860.77
2018-11-04T05:58:08.192Z,100866.97
2018-11-04T06:00:36.284Z,100855.42
2018-11-04T06:03:04.568Z,100857.94
2018-11-04T06:05:32.656Z,100854.89
2018-11-04T06:08:00.748Z,100862.62
2018-11-04T06:10:28.838Z,100859.11
2018-11-04T06:12:56.924Z,100855.76
2018-11-04T06:15:25.013Z,100855.95
2018-11-04T06:17:53.090Z,100859.39
2018-11-04T06:20:21.162Z,100859.23
2018-11-04T06:22:49.247Z,100860.88
2018-11-04T06:25:17.337Z,100868.06
2018-11-04T06:27:45.447Z,100867.75
2018-11-04T06:30:13.822Z,100872.88
2018-11-04T06:32:42.765Z,100868.83
2018-11-04T06:35:10.979Z,100863.14
2018-11-04T06:37:39.163Z,100870.66
2018-11-04T06:40:08.307Z,100871.53
2018-11-04T06:42:36.516Z,100868.67
2018-11-04T06:45:05.475Z,100871.27
2018-11-04T06:47:33.614Z,100865.62
2018-11-04T06:50:01.712Z,100871.81
2018-11-04T06:52:29.801Z,100865.20
2018-11-04T06:54:57.867Z,100869.06
2018-11-04T06:57:25.972Z,100870.59
2018-11-04T06:59:54.107Z,100871.55
2018-11-04T07:02:22.122Z,100870.17
2018-11-04T07:04:50.216Z,100871.93
2018-11-04T07:07:18.314Z,100870.44
2018-11-04T07:09:46.393Z,100864.03
2018-11-04T07:12:22.200Z,100860.36
2018-11-04T07:14:51.373Z,100860.55
2018-11-04T07:17:20.735Z,100863.99
2018-11-04T07:19:50.980Z,100863.15
2018-11-04T07:22:20.448Z,100860.86
2018-11-04T07:24:51.498Z,100871.16
2018-11-04T07:27:22.388Z,100865.74
2018-11-04T07:29:54.046Z,100865.70
2018-11-04T07:32:24.505Z,100863.34
2018-11-04T07:34:55.111Z,100864.06
2018-11-04T07:37:23.736Z,100862.84
2018-11-04T07:39:53.657Z,100862.39
2018-11-04T07:42:22.659Z,100861.23
2018-11-04T07:44:53.545Z,100860.25
2018-11-04T07:47:22.489Z,100858.56
2018-11-04T07:49:50.731Z,100856.31
2018-11-04T07:52:24.548Z,100860.75
2018-11-04T07:54:53.855Z,100853.72
2018-11-04T07:57:23.514Z,100854.17
2018-11-04T07:59:56.002Z,100856.59
2018-11-04T08:02:24.651Z,100859.79
2018-11-04T08:04:53.553Z,100857.50
2018-11-04T08:07:22.990Z,100856.80
2018-11-04T08:09:53.672Z,100857.02
2018-11-04T08:12:24.338Z,100854.89
2018-11-04T08:14:53.636Z,100854.23
2018-11-04T08:17:23.813Z,100851.72
2018-11-04T08:19:53.739Z,100852.81
2018-11-04T08:22:23.028Z,100856.24
2018-11-04T08:24:53.708Z,100857.14
2018-11-04T08:27:22.618Z,100856.68
2018-11-04T08:29:58.654Z,100854.75
2018-11-04T08:32:30.605Z,100859.22
2018-11-04T08:35:01.768Z,100856.84
2018-11-04T08:37:30.880Z,100858.34
2018-11-04T08:40:00.943Z,100860.20
2018-11-04T08:42:30.382Z,100860.47
2018-11-04T08:45:00.868Z,100866.05
2018-11-04T08:47:29.480Z,100860.66
2018-11-04T08:49:58.050Z,100853.48
2018-11-04T08:52:28.073Z,100837.68
2018-11-04T08:54:58.153Z,100840.35
2018-11-04T08:57:29.024Z,100838.26
2018-11-04T09:00:00.482Z,100833.86
2018-11-04T09:02:30.295Z,100827.37
2018-11-04T09:04:59.481Z,100832.33
2018-11-04T09:07:27.595Z,100835.20
2018-11-04T09:09:55.700Z,100832.63
2018-11-04T09:12:23.791Z,100831.73
2018-11-04T09:14:51.904Z,100834.55
2018-11-04T09:17:20.055Z,100829.16
2018-11-04T09:19:48.147Z,100829.34
2018-11-04T09:22:16.309Z,100828.42
2018-11-04T09:24:44.328Z,100833.36
2018-11-04T09:27:12.485Z,100824.45
2018-11-04T09:29:40.592Z,100820.04
2018-11-04T09:32:08.687Z,100816.56
2018-11-04T09:34:36.803Z,100818.95
2018-11-04T09:37:04.999Z,100812.41
2018-11-04T09:39:33.111Z,100807.89
2018-11-04T09:42:01.204Z,100810.98
2018-11-04T09:44:29.327Z,100814.09
2018-11-04T09:46:57.462Z,100804.83
2018-11-04T09:49:25.557Z,100815.92
2018-11-04T09:51:53.639Z,100813.02
2018-11-04T09:54:21.790Z,100818.82
2018-11-04T09:56:49.902Z,100825.27
2018-11-04T09:59:17.998Z,100814.45
2018-11-04T10:01:46.259Z,100811.38
2018-11-04T10:04:14.815Z,100807.44
2018-11-04T10:06:42.924Z,100811.13
2018-11-04T10:09:11.482Z,100807.16
2018-11-04T10:11:39.625Z,100806.30
2018-11-04T10:14:08.453Z,100796.61
2018-11-04T10:16:36.819Z,100794.13
2018-11-04T10:19:05.268Z,100790.70
2018-11-04T10:21:33.220Z,100793.04
2018-11-04T10:24:01.352Z,100783.47
2018-11-04T10:26:29.420Z,100774.80
2018-11-04T10:28:57.541Z,100766.13
2018-11-04T10:31:25.615Z,100768.17
2018-11-04T10:33:53.699Z,100762.72
2018-11-04T10:36:21.856Z,100769.05
2018-11-04T10:38:49.923Z,100760.31
2018-11-04T10:41:18.015Z,100755.82
2018-11-04T10:43:46.118Z,100756.72
2018-11-04T10:46:14.199Z,100750.80
2018-11-04T10:48:42.752Z,100753.01
2018-11-04T10:51:10.871Z,100756.28
2018-11-04T10:53:39.020Z,100753.39
2018-11-04T10:56:07.120Z,100750.36
2018-11-04T10:58:35.288Z,100748.39
2018-11-04T11:01:06.526Z,100747.75
2018-11-04T11:03:34.656Z,100741.73
2018-11-04T11:06:02.819Z,100742.22
2018-11-04T11:08:30.920Z,100731.46
2018-11-04T11:10:59.215Z,100730.80
2018-11-04T11:13:27.370Z,100722.84
2018-11-04T11:15:55.540Z,100721.42
2018-11-04T11:18:23.655Z,100704.86
2018-11-04T11:20:51.747Z,100699.70
2018-11-04T11:23:19.904Z,100694.67
2018-11-04T11:25:47.940Z,100697.05
2018-11-04T11:28:16.055Z,100685.37
2018-11-04T11:30:44.139Z,100679.50
2018-11-04T11:33:12.306Z,100670.64
2018-11-04T11:35:40.433Z,100661.72
2018-11-04T11:38:09.659Z,100658.30
2018-11-04T11:40:37.758Z,100654.59
2018-11-04T11:43:05.909Z,100658.53
2018-11-04T11:45:33.994Z,100651.61
2018-11-04T11:48:02.101Z,100644.46
2018-11-04T11:50:30.231Z,100637.31
2018-11-04T11:52:58.307Z,100633.92
2018-11-04T11:55:26.419Z,100633.70
2018-11-04T11:57:54.530Z,100624.97
2018-11-04T12:00:23.235Z,100630.22
2018-11-04T12:02:51.304Z,100624.59
2018-11-04T12:05:19.451Z,100622.46
2018-11-04T12:07:47.485Z,100619.37
2018-11-04T12:10:15.675Z,100619.68
2018-11-04T12:12:43.752Z,100612.34
2018-11-04T12:15:12.942Z,100618.32
2018-11-04T12:17:41.045Z,100617.10
2018-11-04T12:20:10.015Z,100603.58
2018-11-04T12:22:38.112Z,100594.19
2018-11-04T12:25:07.460Z,100590.13
2018-11-04T12:27:35.549Z,100592.42
2018-11-04T12:30:03.689Z,100586.72
2018-11-04T12:32:31.761Z,100592.61
2018-11-04T12:34:59.973Z,100597.17
2018-11-04T12:37:28.023Z,100588.57
2018-11-04T12:39:56.100Z,100579.49
2018-11-04T12:42:24.211Z,100584.55
2018-11-04T12:44:52.358Z,100585.30
2018-11-04T12:47:20.431Z,100592.75
2018-11-04T12:49:48.562Z,100592.60
2018-11-04T12:52:16.775Z,100590.86
2018-11-04T12:54:44.787Z,100589.80
2018-11-04T12:57:12.893Z,100586.72
2018-11-04T12:59:40.963Z,100585.70
2018-11-04T13:02:09.171Z,100579.09
2018-11-04T13:04:37.167Z,100578.26
2018-11-04T13:07:05.509Z,100574.55
2018-11-04T13:09:33.692Z,100570.81
2018-11-04T13:12:02.075Z,100572.84
2018-11-04T13:14:30.233Z,100567.91
2018-11-04T13:16:58.316Z,100560.36
2018-11-04T13:19:26.452Z,100554.98
2018-11-04T13:21:54.561Z,100534.72
2018-11-04T13:24:22.652Z,100535.16
2018-11-04T13:26:50.776Z,100533.61
2018-11-04T13:29:18.865Z,100535.27
2018-11-04T13:31:46.964Z,100531.02
2018-11-04T13:34:15.170Z,100522.95
2018-11-04T13:36:43.277Z,100520.27
2018-11-04T13:39:11.631Z,100519.94
2018-11-04T13:41:39.753Z,100515.51
2018-11-04T13:44:09.811Z,100511.59
2018-11-04T13:46:37.903Z,100506.59
2018-11-04T13:49:05.994Z,100508.08
2018-11-04T13:51:34.071Z,100503.87
2018-11-04T13:54:02.179Z,100502.48
2018-11-04T13:56:31.412Z,100505.50
2018-11-04T13:58:59.490Z,100505.49
2018-11-04T14:01:28.163Z,100502.64
2018-11-04T14:03:56.227Z,100515.85
2018-11-04T14:06:24.294Z,100513.88
2018-11-04T14:08:54.231Z,100514.41
2018-11-04T14:11:23.326Z,100513.39
2018-11-04T14:13:51.511Z,100510.70
2018-11-04T14:16:19.603Z,100499.95
2018-11-04T14:18:47.743Z,100491.91
2018-11-04T14:21:15.939Z,100489.70
2018-11-04T14:23:44.071Z,100480.08
2018-11-04T14:26:12.343Z,100489.22
2018-11-04T14:28:40.432Z,100486.81
2018-11-04T14:31:08.633Z,100485.36
2018-11-04T14:33:36.680Z,100481.77
2018-11-04T14:36:04.770Z,100487.82
2018-11-04T14:38:32.916Z,100488.91
2018-11-04T14:41:00.995Z,100487.25
2018-11-04T14:43:29.131Z,100482.98
2018-11-04T14:45:57.243Z,100481.20
2018-11-04T14:48:25.425Z,100483.78
2018-11-04T14:50:53.530Z,100485.61
2018-11-04T14:53:21.648Z,100480.80
2018-11-04T14:55:49.755Z,100475.30
2018-11-04T14:58:17.937Z,100467.64
2018-11-04T15:00:46.068Z,100467.14
2018-11-04T15:03:14.500Z,100459.67
2018-11-04T15:05:42.650Z,100457.04
2018-11-04T15:08:10.736Z,100449.36
2018-11-04T15:10:38.903Z,100452.70
2018-11-04T15:13:07.012Z,100453.48
2018-11-04T15:15:35.107Z,100457.66
2018-11-04T15:18:03.288Z,100451.77
2018-11-04T15:20:37.835Z,100452.83
2018-11-04T15:23:06.401Z,100458.33
2018-11-04T15:25:34.476Z,100457.11
2018-11-04T15:28:02.552Z,100454.92
2018-11-04T15:30:30.638Z,100454.36
2018-11-04T15:32:58.805Z,100449.90
2018-11-04T15:35:27.006Z,100445.76
2018-11-04T15:37:55.165Z,100440.86
2018-11-04T15:40:23.357Z,100445.62
2018-11-04T15:42:51.410Z,100448.42
2018-11-04T15:45:19.515Z,100447.77
2018-11-04T15:47:47.641Z,100449.95
2018-11-04T15:50:17.072Z,100451.90
2018-11-04T15:52:45.372Z,100449.05
2018-11-04T15:55:13.483Z,100440.99
2018-11-04T15:57:41.577Z,100436.02
2018-11-04T16:00:11.300Z,100432.50
2018-11-04T16:02:39.462Z,100431.86
2018-11-04T16:05:08.221Z,100430.22
2018-11-04T16:07:36.357Z,100436.23
2018-11-04T16:10:04.778Z,100429.30
2018-11-04T16:12:32.939Z,100433.00
2018-11-04T16:15:01.131Z,100433.66
2018-11-04T16:17:29.184Z,100436.45
2018-11-04T16:19:57.409Z,100438.31
2018-11-04T16:22:25.526Z,100446.14
2018-11-04T16:24:53.597Z,100431.02
2018-11-04T16:27:21.748Z,100422.86
2018-11-04T16:29:49.912Z,100418.03
2018-11-04T16:32:18.009Z,100419.61
2018-11-04T16:34:46.835Z,100407.91
2018-11-04T16:37:14.907Z,100405.83
2018-11-04T16:39:43.029Z,100409.66
2018-11-04T16:42:11.104Z,100409.67
2018-11-04T16:44:40.591Z,100409.75
2018-11-04T16:47:09.183Z,100410.11
2018-11-04T16:49:37.244Z,100417.00
2018-11-04T16:52:06.223Z,100403.02
2018-11-04T16:54:34.379Z,100404.18
2018-11-04T16:57:04.298Z,100409.77
2018-11-04T16:59:32.614Z,100412.90
2018-11-04T17:02:00.716Z,100415.16
2018-11-04T17:04:29.042Z,100420.30
2018-11-04T17:06:57.275Z,100413.41
2018-11-04T17:09:25.386Z,100410.52
2018-11-04T17:11:53.494Z,100421.07
2018-11-04T17:14:21.610Z,100414.85
2018-11-04T17:16:49.696Z,100416.20
2018-11-04T17:19:17.940Z,100419.84
2018-11-04T17:21:46.462Z,100419.00
2018-11-04T17:24:15.068Z,100417.95
2018-11-04T17:26:43.179Z,100421.70
2018-11-04T17:29:11.735Z,100416.00
2018-11-04T17:31:40.279Z,100410.97
2018-11-04T17:34:08.495Z,100416.33
2018-11-04T17:36:36.652Z,100410.84
2018-11-04T17:39:07.489Z,100403.29
2018-11-04T17:41:35.715Z,100415.16
2018-11-04T17:44:04.046Z,100419.53
2018-11-04T17:46:32.166Z,100426.34
2018-11-04T17:49:00.264Z,100412.06
2018-11-04T17:51:29.691Z,100405.57
2018-11-04T17:53:59.003Z,100408.27
2018-11-04T17:56:28.446Z,100400.13
2018-11-04T17:59:00.962Z,100400.45
2018-11-04T18:01:30.920Z,100395.71
2018-11-04T18:04:03.249Z,100410.13
2018-11-04T18:06:33.783Z,100409.34
2018-11-04T18:09:05.074Z,100399.94
2018-11-04T18:11:34.954Z,100397.09
2018-11-04T18:14:03.983Z,100393.30
2018-11-04T18:16:32.487Z,100394.95
2018-11-04T18:19:03.371Z,100402.30
2018-11-04T18:21:32.774Z,100400.25
2018-11-04T18:24:02.021Z,100395.91
2018-11-04T18:26:31.102Z,100393.36
2018-11-04T18:28:59.158Z,100394.37
2018-11-04T18:31:27.440Z,100391.80
2018-11-04T18:33:56.107Z,100398.72
2018-11-04T18:36:25.914Z,100390.11
2018-11-04T18:38:56.924Z,100390.44
2018-11-04T18:41:25.069Z,100379.70
2018-11-04T18:43:53.701Z,100378.77
2018-11-04T18:46:23.060Z,100368.85
2018-11-04T18:48:51.567Z,100373.39
2018-11-04T18:51:19.896Z,100372.79
2018-11-04T18:53:49.740Z,100375.41
2018-11-04T18:56:17.989Z,100375.80
2018-11-04T18:58:46.486Z,100382.50
2018-11-04T19:01:14.936Z,100378.86
2018-11-04T19:03:43.607Z,100382.91
2018-11-04T19:06:12.812Z,100382.28
2018-11-04T19:08:41.274Z,100378.70
2018-11-04T19:11:10.374Z,100386.98
2018-11-04T19:13:38.748Z,100393.69
2018-11-04T19:16:07.109Z,100397.87
2018-11-04T19:18:35.550Z,100404.00
2018-11-04T19:21:03.805Z,100404.72
2018-11-04T19:23:33.738Z,100396.56
2018-11-04T19:26:02.918Z,100393.27
2018-11-04T19:28:32.106Z,100392.54
2018-11-04T19:31:00.601Z,100390.65
2018-11-04T19:33:28.875Z,100381.17
2018-11-04T19:36:01.036Z,100377.95
2018-11-04T19:38:32.404Z,100378.81
2018-11-04T19:41:03.725Z,100373.71
2018-11-04T19:43:33.049Z,100376.39
2018-11-04T19:46:02.411Z,100375.09
2018-11-04T19:48:32.442Z,100370.95
2018-11-04T19:51:01.791Z,100381.91
2018-11-04T19:53:32.686Z,100373.25
2018-11-04T19:56:01.863Z,100370.03
2018-11-04T19:58:31.947Z,100367.73
2018-11-04T20:01:01.998Z,100364.66
2018-11-04T20:03:31.294Z,100369.34
2018-11-04T20:06:03.483Z,100371.80
2018-11-04T20:08:33.653Z,100374.59
2018-11-04T20:11:02.286Z,100373.94
2018-11-04T20:13:35.835Z,100379.95
2018-11-04T20:16:05.087Z,100375.94
2018-11-04T20:21:22.542Z,100378.11
2018-11-04T20:23:54.765Z,100373.55
2018-11-04T20:26:25.552Z,100375.32
2018-11-04T20:29:00.964Z,100375.00
2018-11-04T20:31:34.751Z,100372.31
2018-11-04T20:34:08.763Z,100367.55
2018-11-04T20:36:42.783Z,100358.05
2018-11-04T20:39:17.358Z,100367.34
2018-11-04T20:41:45.756Z,100362.81
2018-11-04T20:44:14.039Z,100358.17
2018-11-04T20:46:42.476Z,100348.16
2018-11-04T20:49:16.490Z,100341.86
2018-11-04T20:51:47.922Z,100336.70
2018-11-04T20:54:16.928Z,100337.76
2018-11-04T20:56:50.617Z,100332.50
2018-11-04T20:59:20.663Z,100335.08
2018-11-04T21:01:51.494Z,100335.37
2018-11-04T21:04:21.598Z,100330.33
2018-11-04T21:06:50.630Z,100323.30
2018-11-04T21:09:19.940Z,100324.23
2018-11-04T21:11:50.324Z,100310.59
2018-11-04T21:14:20.515Z,100305.02
2018-11-04T21:16:52.108Z,100298.64
2018-11-04T21:19:20.629Z,100295.62
2018-11-04T21:21:49.334Z,100301.33
2018-11-04T21:24:17.634Z,100304.22
2018-11-04T21:26:48.095Z,100304.22
2018-11-04T21:29:18.027Z,100292.22
2018-11-04T21:31:48.405Z,100302.27
2018-11-04T21:34:19.214Z,100291.33
2018-11-04T21:36:47.802Z,100282.77
2018-11-04T21:39:21.203Z,100293.51
2018-11-04T21:41:49.861Z,100291.34
2018-11-04T21:44:19.098Z,100283.50
2018-11-04T21:46:47.646Z,100282.94
2018-11-04T21:49:16.019Z,100291.31
2018-11-04T21:51:44.976Z,100287.07
2018-11-04T21:54:16.178Z,100287.07
2018-11-04T21:56:45.445Z,100293.06
2018-11-04T21:59:14.784Z,100301.54
2018-11-04T22:01:44.974Z,100296.86
2018-11-04T22:04:13.558Z,100291.30
2018-11-04T22:06:43.244Z,100285.23
2018-11-04T22:09:12.229Z,100279.03
2018-11-04T22:11:43.333Z,100274.89
2018-11-04T22:14:13.261Z,100281.64
2018-11-04T22:16:43.410Z,100271.79
2018-11-04T22:19:14.230Z,100275.59
2018-11-04T22:21:49.035Z,100279.62
2018-11-04T22:24:17.832Z,100280.80
2018-11-04T22:26:46.636Z,100277.37
2018-11-04T22:29:15.247Z,100274.70
2018-11-04T22:31:44.553Z,100268.51
2018-11-04T22:34:13.510Z,100271.30
2018-11-04T22:36:42.240Z,100263.77
2018-11-04T22:39:11.583Z,100270.60
2018-11-04T22:41:42.960Z,100271.03
2018-11-04T22:44:14.219Z,100265.11
2018-11-04T22:46:44.645Z,100262.77
2018-11-04T22:49:14.939Z,100265.97
2018-11-04T22:51:55.769Z,100261.75
2018-11-04T22:54:25.488Z,100267.53
2018-11-04T22:56:53.923Z,100260.53
2018-11-04T22:59:22.512Z,100259.91
2018-11-04T23:01:53.009Z,100257.64
2018-11-04T23:04:26.406Z,100244.95
2018-11-04T23:06:55.638Z,100243.72
2018-11-04T23:09:24.173Z,100231.77
2018-11-04T23:11:54.979Z,100230.60
2018-11-04T23:14:23.695Z,100222.99
2018-11-04T23:16:54.703Z,100223.02
2018-11-04T23:19:25.273Z,100215.98
2018-11-04T23:21:56.055Z,100207.36
2018-11-04T23:24:28.145Z,100213.86
2018-11-04T23:26:57.109Z,100208.97
2018-11-04T23:29:26.935Z,100202.78
2018-11-04T23:31:55.247Z,100196.48
2018-11-04T23:34:27.435Z,100192.17
2018-11-04T23:36:58.018Z,100197.54
2018-11-04T23:39:29.438Z,100194.34
2018-11-04T23:41:58.500Z,100194.52
2018-11-04T23:44:28.782Z,100184.23
2018-11-04T23:46:58.883Z,100187.02
2018-11-04T23:49:28.207Z,100182.16
2018-11-04T23:51:57.196Z,100196.36
2018-11-04T23:54:26.030Z,100192.17
2018-11-04T23:56:55.363Z,100196.30
2018-11-04T23:59:24.488Z,100203.23
